createdAt,value
2019-02-11T00:01:51.150Z,95.90
2019-02-11T00:04:21.433Z,95.94
2019-02-11T00:06:51.626Z,95.93
2019-02-11T00:09:21.830Z,95.65
2019-02-11T00:11:52.062Z,95.33
2019-02-11T00:14:40.452Z,95.33
2019-02-11T00:17:10.902Z,95.19
2019-02-11T00:19:41.083Z,95.13
2019-02-11T00:22:11.308Z,94.53
2019-02-11T00:24:41.431Z,93.89
2019-02-11T00:27:11.878Z,93.12
2019-02-11T00:29:42.035Z,93.22
2019-02-11T00:32:12.222Z,94.16
2019-02-11T00:34:42.352Z,93.86
2019-02-11T00:37:12.560Z,93.54
2019-02-11T00:39:42.819Z,92.85
2019-02-11T00:42:12.975Z,92.77
2019-02-11T00:44:43.102Z,92.94
2019-02-11T00:47:13.362Z,93.19
2019-02-11T00:49:43.568Z,93.08
2019-02-11T00:52:13.668Z,93.36
2019-02-11T00:54:43.922Z,93.88
2019-02-11T00:57:14.158Z,93.75
2019-02-11T00:59:44.272Z,94.65
2019-02-11T01:02:14.405Z,94.90
2019-02-11T01:04:44.562Z,95.30
2019-02-11T01:07:14.874Z,94.39
2019-02-11T01:09:45.093Z,94.46
2019-02-11T01:12:15.334Z,93.41
2019-02-11T01:14:45.653Z,93.21
2019-02-11T01:17:15.922Z,93.57
2019-02-11T01:19:46.063Z,94.13
2019-02-11T01:22:16.192Z,94.15
2019-02-11T01:24:46.393Z,94.10
2019-02-11T01:27:16.540Z,93.59
2019-02-11T01:29:46.667Z,92.69
2019-02-11T01:32:16.940Z,92.87
2019-02-11T01:34:47.051Z,92.79
2019-02-11T01:37:17.361Z,92.58
2019-02-11T01:39:47.537Z,92.35
2019-02-11T01:42:17.829Z,92.19
2019-02-11T01:44:48.059Z,91.41
2019-02-11T01:47:18.197Z,90.42
2019-02-11T01:49:48.328Z,89.64
2019-02-11T01:52:18.591Z,89.19
2019-02-11T01:54:49.057Z,89.04
2019-02-11T01:57:19.397Z,89.47
2019-02-11T01:59:49.641Z,88.71
2019-02-11T02:02:19.967Z,89.25
2019-02-11T02:04:50.316Z,89.46
2019-02-11T02:07:20.496Z,89.30
2019-02-11T02:09:50.607Z,89.77
2019-02-11T02:12:20.736Z,90.38
2019-02-11T02:14:50.871Z,90.24
2019-02-11T02:17:21.192Z,90.60
2019-02-11T02:19:51.606Z,91.20
2019-02-11T02:22:21.883Z,91.29
2019-02-11T02:24:52.106Z,91.14
2019-02-11T02:27:22.286Z,91.47
2019-02-11T02:29:52.533Z,91.69
2019-02-11T02:32:23.323Z,91.87
2019-02-11T02:34:53.542Z,91.53
2019-02-11T02:37:23.917Z,91.56
2019-02-11T02:39:54.093Z,90.86
2019-02-11T02:42:24.453Z,91.04
2019-02-11T02:44:54.612Z,90.82
2019-02-11T02:47:24.706Z,90.56
2019-02-11T02:49:54.855Z,90.72
2019-02-11T02:52:24.995Z,89.88
2019-02-11T02:54:55.262Z,90.06
2019-02-11T02:57:25.588Z,89.46
2019-02-11T02:59:55.736Z,88.83
2019-02-11T03:02:25.963Z,88.29
2019-02-11T03:04:56.242Z,87.98
2019-02-11T03:07:26.755Z,87.01
2019-02-11T03:09:57.172Z,87.80
2019-02-11T03:12:27.632Z,87.37
2019-02-11T03:14:57.760Z,87.82
2019-02-11T03:25:02.791Z,86.21
2019-02-11T03:27:32.952Z,86.38
2019-02-11T03:30:03.427Z,86.65
2019-02-11T03:32:34.812Z,85.87
2019-02-11T03:35:06.322Z,86.00
2019-02-11T03:37:36.510Z,85.73
2019-02-11T03:40:09.107Z,85.44
2019-02-11T03:42:39.415Z,84.55
2019-02-11T03:45:10.611Z,84.96
2019-02-11T03:47:40.956Z,84.79
2019-02-11T03:50:11.211Z,84.96
2019-02-11T03:52:41.553Z,84.59
2019-02-11T03:55:11.827Z,84.23
2019-02-11T03:57:42.486Z,84.50
2019-02-11T04:00:12.870Z,83.76
2019-02-11T04:02:43.445Z,83.94
2019-02-11T04:05:14.018Z,83.71
2019-02-11T04:07:44.404Z,83.64
2019-02-11T04:10:14.572Z,84.16
2019-02-11T04:12:44.936Z,83.30
2019-02-11T04:15:15.127Z,83.79
2019-02-11T04:17:45.342Z,83.19
2019-02-11T04:20:15.527Z,83.60
2019-02-11T04:22:45.704Z,83.22
2019-02-11T04:25:16.012Z,83.87
2019-02-11T04:27:46.167Z,82.41
2019-02-11T04:30:16.555Z,82.52
2019-02-11T04:32:46.803Z,82.73
2019-02-11T04:35:16.950Z,82.77
2019-02-11T04:37:47.104Z,81.61
2019-02-11T04:40:21.361Z,81.28
2019-02-11T04:42:51.919Z,81.91
2019-02-11T04:45:22.220Z,80.82
2019-02-11T04:47:52.541Z,80.45
2019-02-11T04:50:22.699Z,80.48
2019-02-11T04:52:54.250Z,80.03
2019-02-11T04:55:24.395Z,79.87
2019-02-11T04:57:54.667Z,79.62
2019-02-11T05:00:25.534Z,79.40
2019-02-11T05:02:55.675Z,78.96
2019-02-11T05:05:25.872Z,80.00
2019-02-11T05:07:56.188Z,79.29
2019-02-11T05:10:26.411Z,78.85
2019-02-11T05:12:56.529Z,78.62
2019-02-11T05:15:26.758Z,78.86
2019-02-11T05:17:56.953Z,79.05
2019-02-11T05:20:27.109Z,78.92
2019-02-11T05:22:57.429Z,78.97
2019-02-11T05:25:27.733Z,78.41
2019-02-11T05:27:58.045Z,79.20
2019-02-11T05:30:28.696Z,78.15
2019-02-11T05:32:58.979Z,76.87
2019-02-11T05:35:29.312Z,78.26
2019-02-11T05:37:59.518Z,77.46
2019-02-11T05:40:29.988Z,77.28
2019-02-11T05:43:01.059Z,76.51
2019-02-11T05:45:31.514Z,76.76
2019-02-11T05:48:02.199Z,77.19
2019-02-11T05:50:33.468Z,77.04
2019-02-11T05:53:03.733Z,76.25
2019-02-11T05:55:33.899Z,76.43
2019-02-11T05:58:04.186Z,76.13
2019-02-11T06:00:34.862Z,75.43
2019-02-11T06:03:05.343Z,74.68
2019-02-11T06:05:35.585Z,74.57
2019-02-11T06:08:05.736Z,73.58
2019-02-11T06:10:37.216Z,73.46
2019-02-11T06:13:07.367Z,73.96
2019-02-11T06:15:37.889Z,72.71
2019-02-11T06:18:08.391Z,72.79
2019-02-11T06:20:38.885Z,73.63
2019-02-11T06:23:09.042Z,73.83
2019-02-11T06:25:39.247Z,74.42
2019-02-11T06:28:09.376Z,74.17
2019-02-11T06:30:40.117Z,73.94
2019-02-11T06:33:10.497Z,74.55
2019-02-11T06:35:40.858Z,75.45
2019-02-11T06:38:11.193Z,74.88
2019-02-11T06:40:41.407Z,75.28
2019-02-11T06:43:12.667Z,75.10
2019-02-11T06:45:43.255Z,75.64
2019-02-11T06:48:13.569Z,74.78
2019-02-11T06:50:44.081Z,74.99
2019-02-11T06:53:14.223Z,74.94
2019-02-11T06:55:44.442Z,74.74
2019-02-11T06:58:14.583Z,73.98
2019-02-11T07:00:45.006Z,74.27
2019-02-11T07:03:15.180Z,73.52
2019-02-11T07:05:45.328Z,74.08
2019-02-11T07:08:15.654Z,73.38
2019-02-11T07:10:46.437Z,73.00
2019-02-11T07:13:17.713Z,73.12
2019-02-11T07:15:48.069Z,72.60
2019-02-11T07:18:27.528Z,72.79
2019-02-11T07:20:58.267Z,72.85
2019-02-11T07:23:28.602Z,72.01
2019-02-11T07:26:01.434Z,73.03
2019-02-11T07:28:31.801Z,72.86
2019-02-11T07:31:02.347Z,71.93
2019-02-11T07:33:34.054Z,71.97
2019-02-11T07:36:04.342Z,71.84
2019-02-11T07:38:34.480Z,71.22
2019-02-11T07:41:04.900Z,72.06
2019-02-11T07:43:46.196Z,71.54
2019-02-11T07:46:20.338Z,71.63
2019-02-11T07:48:53.945Z,70.97
2019-02-11T07:51:24.823Z,71.20
2019-02-11T07:53:55.989Z,71.17
2019-02-11T07:56:27.294Z,71.12
2019-02-11T07:58:57.928Z,70.77
2019-02-11T08:01:28.547Z,70.77
2019-02-11T08:03:58.741Z,70.96
2019-02-11T08:06:29.201Z,71.56
2019-02-11T08:08:59.749Z,70.33
2019-02-11T08:11:30.159Z,71.35
2019-02-11T08:14:00.800Z,71.21
2019-02-11T08:16:31.760Z,71.22
2019-02-11T08:19:02.116Z,70.02
2019-02-11T08:21:32.623Z,70.71
2019-02-11T08:24:04.190Z,70.71
2019-02-11T08:26:34.466Z,70.46
2019-02-11T08:29:04.609Z,70.13
2019-02-11T08:31:34.875Z,69.57
2019-02-11T08:34:05.019Z,69.72
2019-02-11T08:36:35.335Z,69.46
2019-02-11T08:39:07.154Z,69.27
2019-02-11T08:41:37.433Z,69.77
2019-02-11T08:44:07.864Z,68.97
2019-02-11T08:46:38.016Z,68.54
2019-02-11T08:49:08.296Z,68.56
2019-02-11T08:51:38.587Z,68.18
2019-02-11T08:54:09.174Z,68.47
2019-02-11T08:56:39.874Z,67.71
2019-02-11T08:59:09.979Z,67.48
2019-02-11T09:01:40.103Z,67.15
2019-02-11T09:04:18.644Z,67.63
2019-02-11T09:06:42.182Z,67.12
2019-02-11T09:09:12.518Z,67.19
2019-02-11T09:11:42.885Z,67.41
2019-02-11T09:14:13.131Z,65.96
2019-02-11T09:16:43.401Z,66.17
2019-02-11T09:19:13.511Z,65.26
2019-02-11T09:21:43.643Z,65.24
2019-02-11T09:24:13.947Z,66.24
2019-02-11T09:26:44.270Z,64.91
2019-02-11T09:29:14.476Z,64.29
2019-02-11T09:31:44.837Z,64.25
2019-02-11T09:34:15.560Z,64.03
2019-02-11T09:36:45.827Z,63.63
2019-02-11T09:39:17.820Z,64.09
2019-02-11T09:41:48.335Z,63.87
2019-02-11T09:44:19.030Z,63.12
2019-02-11T09:46:49.494Z,62.83
2019-02-11T09:49:20.434Z,63.44
2019-02-11T09:51:51.561Z,63.25
2019-02-11T09:54:23.090Z,64.12
2019-02-11T09:56:53.475Z,63.37
2019-02-11T09:59:24.078Z,62.40
2019-02-11T10:01:54.549Z,62.07
2019-02-11T10:04:25.037Z,61.68
2019-02-11T10:06:55.599Z,60.79
2019-02-11T10:09:26.143Z,61.18
2019-02-11T10:11:56.497Z,60.91
2019-02-11T10:14:26.751Z,60.90
2019-02-11T10:16:56.999Z,60.44
2019-02-11T10:19:27.549Z,60.80
2019-02-11T10:21:57.959Z,59.30
2019-02-11T10:24:28.298Z,60.62
2019-02-11T10:26:58.842Z,60.12
2019-02-11T10:29:29.059Z,59.93
2019-02-11T10:31:59.640Z,58.15
2019-02-11T10:34:30.084Z,56.90
2019-02-11T10:37:00.262Z,56.95
2019-02-11T10:39:30.721Z,58.42
2019-02-11T10:42:00.869Z,56.76
2019-02-11T10:44:31.166Z,55.99
2019-02-11T10:47:02.154Z,56.17
2019-02-11T10:49:32.386Z,56.02
2019-02-11T10:52:02.559Z,55.82
2019-02-11T10:54:32.924Z,56.72
2019-02-11T10:57:03.563Z,56.03
2019-02-11T10:59:33.917Z,55.66
2019-02-11T11:02:04.450Z,56.14
2019-02-11T11:04:34.676Z,56.86
2019-02-11T11:07:06.194Z,55.99
2019-02-11T11:09:36.676Z,56.49
2019-02-11T11:12:07.677Z,56.23
2019-02-11T11:14:37.969Z,57.45
2019-02-11T11:17:09.197Z,57.00
2019-02-11T11:24:33.969Z,57.63
2019-02-11T11:27:04.448Z,57.11
2019-02-11T11:29:34.660Z,57.72
2019-02-11T11:32:05.015Z,57.81
2019-02-11T11:34:35.418Z,58.08
2019-02-11T11:37:10.183Z,57.16
2019-02-11T11:39:40.722Z,57.08
2019-02-11T11:42:11.127Z,57.14
2019-02-11T11:44:41.498Z,57.05
2019-02-11T11:47:11.726Z,56.72
2019-02-11T11:49:41.921Z,56.84
2019-02-11T11:52:12.323Z,57.38
2019-02-11T11:54:42.952Z,57.89
2019-02-11T11:57:13.277Z,57.40
2019-02-11T11:59:43.601Z,56.89
2019-02-11T12:02:16.400Z,57.70
2019-02-11T12:04:46.890Z,57.86
2019-02-11T12:07:17.235Z,57.66
2019-02-11T12:09:47.996Z,58.38
2019-02-11T12:12:18.504Z,58.15
2019-02-11T12:14:48.683Z,57.38
2019-02-11T12:17:19.180Z,57.66
2019-02-11T12:19:50.494Z,57.87
2019-02-11T12:22:20.964Z,57.89
2019-02-11T12:24:51.585Z,58.85
2019-02-11T12:27:22.265Z,59.07
2019-02-11T12:29:52.848Z,59.98
2019-02-11T12:32:23.145Z,59.94
2019-02-11T12:34:53.457Z,59.68
2019-02-11T12:37:23.801Z,58.55
2019-02-11T12:39:54.588Z,58.70
2019-02-11T12:42:24.812Z,57.64
2019-02-11T12:44:55.029Z,55.05
2019-02-11T12:47:25.263Z,54.39
2019-02-11T12:49:55.680Z,56.00
2019-02-11T12:52:26.244Z,56.41
2019-02-11T12:54:56.639Z,56.90
2019-02-11T12:57:26.960Z,57.98
2019-02-11T12:59:57.270Z,61.80
2019-02-11T13:02:27.658Z,65.02
2019-02-11T13:04:58.423Z,66.39
2019-02-11T13:07:32.055Z,64.50
2019-02-11T13:10:02.778Z,62.81
2019-02-11T13:12:33.106Z,62.92
2019-02-11T13:15:03.396Z,62.56
2019-02-11T13:17:34.956Z,63.47
2019-02-11T13:20:10.296Z,61.67
2019-02-11T13:22:39.872Z,59.37
2019-02-11T13:25:14.653Z,54.23
2019-02-11T13:27:45.249Z,49.51
2019-02-11T13:30:19.826Z,47.30
2019-02-11T13:32:50.173Z,46.98
2019-02-11T13:35:20.432Z,46.08
2019-02-11T13:37:54.499Z,47.23
2019-02-11T13:40:22.718Z,48.19
2019-02-11T13:42:53.139Z,48.87
2019-02-11T13:45:23.943Z,49.26
2019-02-11T13:47:57.797Z,50.03
2019-02-11T13:50:27.355Z,51.84
2019-02-11T13:52:59.329Z,53.36
2019-02-11T13:55:31.661Z,54.35
2019-02-11T13:58:02.566Z,55.27
2019-02-11T14:00:34.333Z,55.96
2019-02-11T14:03:06.826Z,55.92
2019-02-11T14:05:37.260Z,56.51
2019-02-11T14:08:07.704Z,57.47
2019-02-11T14:10:37.936Z,58.70
2019-02-11T14:13:08.279Z,58.02
2019-02-11T14:15:38.475Z,56.30
2019-02-11T14:18:15.334Z,55.88
2019-02-11T14:20:49.552Z,55.12
2019-02-11T14:23:17.847Z,54.95
2019-02-11T14:25:48.704Z,55.58
2019-02-11T14:28:19.257Z,56.66
2019-02-11T14:30:49.951Z,56.57
2019-02-11T14:33:20.992Z,56.44
2019-02-11T14:35:51.701Z,56.90
2019-02-11T14:38:22.585Z,57.07
2019-02-11T14:40:53.172Z,57.07
2019-02-11T14:43:24.113Z,57.45
2019-02-11T14:45:56.212Z,57.92
2019-02-11T14:48:28.657Z,57.18
2019-02-11T14:50:59.677Z,58.38
2019-02-11T14:53:30.637Z,58.08
2019-02-11T14:56:01.168Z,58.43
2019-02-11T14:58:31.674Z,58.58
2019-02-11T15:01:03.021Z,58.18
2019-02-11T15:03:33.480Z,54.47
2019-02-11T15:06:04.015Z,53.71
2019-02-11T15:08:34.559Z,53.45
2019-02-11T15:11:05.081Z,53.73
2019-02-11T15:13:35.506Z,53.97
2019-02-11T15:16:06.323Z,54.30
2019-02-11T15:18:36.835Z,55.18
2019-02-11T15:21:07.344Z,55.73
2019-02-11T15:23:38.046Z,56.01
2019-02-11T15:26:08.733Z,55.53
2019-02-11T15:28:39.283Z,53.88
2019-02-11T15:31:09.764Z,53.49
2019-02-11T15:33:40.545Z,53.55
2019-02-11T15:36:11.484Z,54.83
2019-02-11T15:38:42.103Z,54.02
2019-02-11T15:41:12.547Z,54.30
2019-02-11T15:43:42.987Z,55.63
2019-02-11T15:46:13.860Z,56.16
2019-02-11T15:48:45.660Z,56.08
2019-02-11T15:51:16.018Z,56.57
2019-02-11T15:53:46.404Z,56.21
2019-02-11T15:56:17.043Z,57.56
2019-02-11T15:58:47.500Z,57.88
2019-02-11T16:01:18.311Z,57.89
2019-02-11T16:03:49.024Z,58.66
2019-02-11T16:06:19.444Z,59.23
2019-02-11T16:08:49.967Z,59.47
2019-02-11T16:11:20.541Z,60.72
2019-02-11T16:13:51.340Z,61.01
2019-02-11T16:16:22.071Z,60.81
2019-02-11T16:18:52.797Z,60.73
2019-02-11T16:21:23.479Z,61.01
2019-02-11T16:23:54.310Z,60.65
2019-02-11T16:26:24.691Z,61.46
2019-02-11T16:28:55.018Z,62.23
2019-02-11T16:31:25.757Z,60.66
2019-02-11T16:33:56.046Z,61.09
2019-02-11T16:36:26.639Z,61.03
2019-02-11T16:38:56.998Z,62.48
2019-02-11T16:41:27.559Z,62.04
2019-02-11T16:43:57.991Z,62.52
2019-02-11T16:46:28.372Z,63.39
2019-02-11T16:49:00.533Z,63.69
2019-02-11T16:51:31.298Z,63.75
2019-02-11T16:54:01.746Z,64.55
2019-02-11T16:56:32.047Z,65.19
2019-02-11T16:59:02.631Z,65.12
2019-02-11T17:01:33.225Z,65.38
2019-02-11T17:04:04.641Z,65.50
2019-02-11T17:06:35.399Z,66.41
2019-02-11T17:09:06.345Z,66.93
2019-02-11T17:11:36.775Z,66.54
2019-02-11T17:14:07.415Z,66.31
2019-02-11T17:16:37.717Z,67.20
2019-02-11T17:19:09.627Z,66.65
2019-02-11T17:21:40.630Z,66.98
2019-02-11T17:24:10.896Z,67.08
2019-02-11T17:26:41.275Z,67.20
2019-02-11T17:29:11.460Z,67.32
2019-02-11T17:31:41.729Z,67.54
2019-02-11T17:34:12.470Z,67.26
2019-02-11T17:36:42.859Z,67.36
2019-02-11T17:39:13.679Z,66.83
2019-02-11T17:41:44.179Z,67.84
2019-02-11T17:44:14.582Z,67.71
2019-02-11T17:46:44.797Z,67.63
2019-02-11T17:49:17.823Z,67.18
2019-02-11T17:51:47.407Z,67.08
2019-02-11T17:54:17.850Z,68.30
2019-02-11T17:56:48.597Z,67.91
2019-02-11T17:59:19.193Z,68.23
2019-02-11T18:01:49.709Z,68.29
2019-02-11T18:04:19.933Z,68.64
2019-02-11T18:06:50.396Z,68.78
2019-02-11T18:09:21.141Z,68.46
2019-02-11T18:11:51.979Z,68.86
2019-02-11T18:14:22.773Z,69.53
2019-02-11T18:16:53.118Z,69.40
2019-02-11T18:19:26.242Z,69.68
2019-02-11T18:21:57.291Z,70.02
2019-02-11T18:24:27.577Z,70.03
2019-02-11T18:26:58.125Z,70.33
2019-02-11T18:29:28.582Z,70.39
2019-02-11T18:31:58.926Z,70.55
2019-02-11T18:34:29.600Z,70.88
2019-02-11T18:37:00.178Z,71.41
2019-02-11T18:39:30.611Z,71.35
2019-02-11T18:42:00.960Z,71.92
2019-02-11T18:44:32.911Z,72.13
2019-02-11T18:47:03.636Z,72.17
2019-02-11T18:49:35.414Z,72.03
2019-02-11T18:52:05.929Z,72.12
2019-02-11T18:54:36.396Z,72.50
2019-02-11T18:57:06.954Z,71.96
2019-02-11T18:59:37.506Z,72.61
2019-02-11T19:02:11.286Z,72.29
2019-02-11T19:04:41.981Z,72.42
2019-02-11T19:07:12.547Z,72.38
2019-02-11T19:09:42.761Z,72.57
2019-02-11T19:12:15.518Z,72.46
2019-02-11T19:14:46.101Z,72.43
2019-02-11T19:17:16.920Z,72.73
2019-02-11T19:20:05.569Z,73.40
2019-02-11T19:22:36.062Z,73.61
2019-02-11T19:25:08.795Z,73.91
2019-02-11T19:27:39.344Z,74.20
2019-02-11T19:30:13.609Z,73.67
2019-02-11T19:32:44.447Z,74.46
2019-02-11T19:35:15.345Z,74.15
2019-02-11T19:37:46.177Z,74.83
2019-02-11T19:40:16.815Z,74.47
2019-02-11T19:42:47.418Z,74.57
2019-02-11T19:45:19.765Z,74.82
2019-02-11T19:47:50.516Z,74.81
2019-02-11T19:50:21.114Z,75.48
2019-02-11T19:52:51.924Z,74.54
2019-02-11T19:55:22.436Z,75.34
2019-02-11T19:57:53.019Z,74.95
2019-02-11T20:00:23.966Z,74.64
2019-02-11T20:02:54.909Z,74.97
2019-02-11T20:05:25.523Z,75.07
2019-02-11T20:07:56.061Z,74.72
2019-02-11T20:10:26.567Z,74.61
2019-02-11T20:12:57.357Z,74.72
2019-02-11T20:15:27.913Z,75.01
2019-02-11T20:17:58.563Z,74.84
2019-02-11T20:20:29.262Z,75.19
2019-02-11T20:22:59.544Z,74.68
2019-02-11T20:25:48.256Z,74.87
2019-02-11T20:28:18.716Z,74.83
2019-02-11T20:30:49.358Z,75.01
2019-02-11T20:33:19.564Z,74.82
2019-02-11T20:39:45.802Z,75.68
2019-02-11T20:42:16.341Z,75.92
2019-02-11T20:44:47.129Z,75.82
2019-02-11T20:47:17.603Z,75.81
2019-02-11T20:49:48.166Z,75.92
2019-02-11T20:52:18.997Z,78.11
2019-02-11T20:54:50.115Z,78.11
2019-02-11T20:57:20.797Z,78.76
2019-02-11T20:59:51.326Z,79.19
2019-02-11T21:02:21.775Z,80.00
2019-02-11T21:04:52.633Z,79.27
2019-02-11T21:07:23.015Z,78.40
2019-02-11T21:09:53.343Z,77.71
2019-02-11T21:12:24.086Z,77.48
2019-02-11T21:14:54.429Z,77.26
2019-02-11T21:17:25.172Z,77.62
2019-02-11T21:19:56.005Z,78.31
2019-02-11T21:22:27.868Z,80.91
2019-02-11T21:24:58.170Z,83.71
2019-02-11T21:27:28.626Z,84.36
2019-02-11T21:29:59.444Z,84.88
2019-02-11T21:32:29.971Z,85.10
2019-02-11T21:35:00.446Z,85.92
2019-02-11T21:37:31.260Z,85.86
2019-02-11T21:40:01.998Z,86.63
2019-02-11T21:42:33.395Z,86.77
2019-02-11T21:45:04.227Z,87.05
2019-02-11T21:47:34.707Z,87.03
2019-02-11T21:50:06.015Z,87.32
2019-02-11T21:52:36.361Z,88.07
2019-02-11T21:55:09.085Z,87.56
2019-02-11T21:57:39.447Z,87.13
2019-02-11T22:00:13.088Z,87.03
2019-02-11T22:02:43.888Z,86.98
2019-02-11T22:05:15.614Z,86.80
2019-02-11T22:07:46.079Z,86.95
2019-02-11T22:10:17.361Z,87.48
2019-02-11T22:12:47.623Z,87.19
2019-02-11T22:15:17.917Z,87.11
2019-02-11T22:17:48.182Z,86.93
2019-02-11T22:20:21.672Z,87.06
2019-02-11T22:22:52.561Z,87.19
2019-02-11T22:25:23.338Z,87.25
2019-02-11T22:27:53.540Z,87.63
2019-02-11T22:30:23.985Z,87.85
2019-02-11T22:32:54.590Z,87.72
2019-02-11T22:35:25.010Z,87.78
2019-02-11T22:37:55.282Z,87.75
2019-02-11T22:40:25.652Z,87.96
2019-02-11T22:42:55.975Z,87.92
2019-02-11T22:45:26.325Z,87.88
2019-02-11T22:47:56.851Z,87.79
2019-02-11T22:50:28.076Z,87.72
2019-02-11T22:52:58.390Z,87.53
2019-02-11T22:55:28.801Z,87.75
2019-02-11T22:57:59.023Z,87.90
2019-02-11T23:00:47.639Z,88.08
2019-02-11T23:03:17.895Z,88.59
2019-02-11T23:05:49.534Z,88.70
2019-02-11T23:08:19.898Z,88.38
2019-02-11T23:10:50.297Z,88.48
2019-02-11T23:13:20.805Z,89.36
2019-02-11T23:15:51.037Z,89.63
2019-02-11T23:18:21.503Z,90.57
2019-02-11T23:20:52.461Z,91.08
2019-02-11T23:23:23.092Z,90.92
2019-02-11T23:25:53.368Z,90.50
2019-02-11T23:28:23.475Z,90.66
2019-02-11T23:30:54.054Z,90.75
2019-02-11T23:33:24.199Z,91.13
2019-02-11T23:35:54.458Z,91.22
2019-02-11T23:38:24.988Z,91.71
2019-02-11T23:40:55.502Z,91.97
2019-02-11T23:43:25.816Z,92.03
2019-02-11T23:45:56.081Z,91.90
2019-02-11T23:48:26.247Z,91.60
2019-02-11T23:51:00.516Z,91.49
2019-02-11T23:53:28.418Z,91.65
2019-02-11T23:55:58.911Z,91.42
2019-02-11T23:58:29.076Z,91.14
